createdAt,value
2023-02-21T00:02:32.692Z,86.00
2023-02-21T00:05:18.554Z,86.30
2023-02-21T00:08:04.417Z,86.30
2023-02-21T00:10:50.111Z,86.50
2023-02-21T00:13:35.880Z,86.80
2023-02-21T00:16:21.669Z,86.80
2023-02-21T00:19:07.540Z,87.20
2023-02-21T00:21:53.356Z,87.50
2023-02-21T00:24:39.033Z,87.40
2023-02-21T00:27:25.037Z,87.40
2023-02-21T00:30:11.134Z,87.20
2023-02-21T00:32:57.023Z,87.20
2023-02-21T00:35:42.824Z,87.00
2023-02-21T00:38:29.538Z,86.90
2023-02-21T00:41:15.587Z,86.60
2023-02-21T00:44:01.469Z,86.60
2023-02-21T00:46:47.199Z,86.40
2023-02-21T00:49:33.207Z,86.50
2023-02-21T00:52:18.976Z,86.90
2023-02-21T00:55:04.747Z,87.00
2023-02-21T00:57:50.579Z,87.10
2023-02-21T01:00:39.398Z,87.20
2023-02-21T01:03:25.230Z,87.20
2023-02-21T01:06:13.173Z,87.20
2023-02-21T01:09:01.460Z,87.20
2023-02-21T01:11:47.820Z,87.30
2023-02-21T01:14:33.794Z,87.50
2023-02-21T01:17:19.840Z,87.50
2023-02-21T01:20:06.138Z,87.50
2023-02-21T01:22:53.634Z,87.60
2023-02-21T01:25:39.764Z,87.70
2023-02-21T01:28:25.975Z,87.60
2023-02-21T01:31:11.842Z,87.50
2023-02-21T01:33:59.740Z,87.40
2023-02-21T01:36:46.066Z,87.60
2023-02-21T01:39:33.060Z,87.50
2023-02-21T01:42:19.715Z,87.40
2023-02-21T01:45:06.983Z,87.40
2023-02-21T01:47:53.389Z,87.40
2023-02-21T01:50:50.396Z,87.60
2023-02-21T01:53:44.167Z,87.60
2023-02-21T01:56:31.028Z,87.80
2023-02-21T01:59:20.165Z,88.10
2023-02-21T02:02:16.495Z,88.10
2023-02-21T02:05:03.367Z,88.00
2023-02-21T02:07:51.620Z,87.80
2023-02-21T02:10:37.757Z,87.80
2023-02-21T02:13:24.620Z,87.70
2023-02-21T02:16:07.914Z,87.80
2023-02-21T02:19:18.940Z,87.80
2023-02-21T02:22:12.123Z,87.80
2023-02-21T02:25:03.630Z,88.00
2023-02-21T02:27:42.513Z,87.90
2023-02-21T02:30:40.058Z,88.10
2023-02-21T02:33:29.411Z,88.10
2023-02-21T02:36:04.775Z,88.10
2023-02-21T02:38:48.917Z,88.10
2023-02-21T02:41:31.338Z,88.30
2023-02-21T02:44:11.516Z,88.40
2023-02-21T02:46:42.753Z,88.60
2023-02-21T02:49:18.693Z,88.90
2023-02-21T02:51:49.097Z,89.10
2023-02-21T02:54:29.182Z,89.20
2023-02-21T02:57:03.375Z,89.20
2023-02-21T02:59:33.341Z,89.30
2023-02-21T03:02:19.820Z,89.20
2023-02-21T03:05:02.135Z,89.50
2023-02-21T03:07:38.206Z,89.40
2023-02-21T03:10:45.178Z,89.40
2023-02-21T03:13:16.691Z,89.40
2023-02-21T03:16:01.319Z,89.10
2023-02-21T03:18:47.885Z,89.10
2023-02-21T03:21:24.228Z,88.80
2023-02-21T03:23:54.363Z,89.00
2023-02-21T03:26:21.775Z,88.70
2023-02-21T03:28:55.863Z,88.60
2023-02-21T03:31:29.900Z,88.50
2023-02-21T03:33:59.065Z,88.30
2023-02-21T03:36:28.884Z,88.30
2023-02-21T03:38:56.829Z,88.40
2023-02-21T03:41:47.039Z,88.50
2023-02-21T03:44:14.771Z,88.60
2023-02-21T03:46:42.349Z,88.70
2023-02-21T03:49:09.634Z,88.70
2023-02-21T03:51:36.997Z,88.80
2023-02-21T03:54:04.477Z,88.70
2023-02-21T03:56:42.180Z,88.70
2023-02-21T03:59:36.097Z,88.80
2023-02-21T04:02:03.884Z,88.90
2023-02-21T04:04:33.625Z,88.90
2023-02-21T04:07:10.991Z,88.80
2023-02-21T04:09:38.942Z,89.00
2023-02-21T04:12:07.666Z,88.80
2023-02-21T04:14:36.463Z,88.80
2023-02-21T04:17:04.553Z,88.70
2023-02-21T04:19:31.891Z,88.70
2023-02-21T04:22:05.131Z,88.80
2023-02-21T04:24:32.635Z,88.80
2023-02-21T04:26:59.921Z,88.70
2023-02-21T04:29:28.971Z,88.40
2023-02-21T04:31:56.900Z,88.40
2023-02-21T04:34:24.332Z,88.30
2023-02-21T04:36:52.826Z,88.20
2023-02-21T04:39:20.262Z,88.30
2023-02-21T04:41:49.065Z,88.20
2023-02-21T04:44:18.187Z,88.00
2023-02-21T04:46:45.390Z,88.00
2023-02-21T04:49:13.521Z,88.20
2023-02-21T04:51:40.737Z,88.30
2023-02-21T04:54:08.359Z,88.40
2023-02-21T04:56:35.710Z,88.60
2023-02-21T04:59:03.095Z,88.90
2023-02-21T05:01:31.489Z,89.30
2023-02-21T05:04:00.321Z,89.70
2023-02-21T05:06:31.660Z,89.90
2023-02-21T05:09:00.503Z,90.20
2023-02-21T05:11:28.027Z,90.50
2023-02-21T05:13:55.259Z,90.70
2023-02-21T05:16:22.531Z,91.00
2023-02-21T05:18:50.016Z,91.10
2023-02-21T05:21:23.812Z,91.10
2023-02-21T05:23:56.943Z,91.20
2023-02-21T05:26:32.804Z,91.10
2023-02-21T05:29:01.309Z,91.20
2023-02-21T05:31:32.116Z,91.20
2023-02-21T05:34:00.600Z,91.20
2023-02-21T05:36:27.901Z,91.10
2023-02-21T05:38:57.704Z,91.10
2023-02-21T05:41:27.345Z,91.00
2023-02-21T05:43:54.673Z,91.10
2023-02-21T05:46:26.054Z,90.90
2023-02-21T05:48:54.057Z,91.00
2023-02-21T05:51:21.334Z,90.80
2023-02-21T05:53:49.005Z,90.70
2023-02-21T05:56:17.458Z,90.70
2023-02-21T05:58:45.021Z,90.70
2023-02-21T06:01:12.740Z,90.50
2023-02-21T06:03:40.230Z,90.30
2023-02-21T06:06:07.547Z,90.30
2023-02-21T06:08:46.995Z,90.30
2023-02-21T06:11:15.326Z,90.30
2023-02-21T06:13:42.807Z,90.30
2023-02-21T06:16:10.129Z,90.20
2023-02-21T06:18:37.359Z,90.50
2023-02-21T06:21:04.695Z,90.50
2023-02-21T06:23:31.878Z,90.50
2023-02-21T06:25:59.072Z,90.60
2023-02-21T06:28:30.784Z,90.70
2023-02-21T06:30:58.034Z,90.80
2023-02-21T06:33:25.316Z,90.70
2023-02-21T06:35:52.571Z,90.60
2023-02-21T06:38:19.768Z,90.90
2023-02-21T06:40:47.039Z,90.90
2023-02-21T06:43:14.342Z,90.90
2023-02-21T06:45:41.656Z,90.80
2023-02-21T06:48:08.855Z,90.50
2023-02-21T06:50:36.065Z,90.60
2023-02-21T06:53:03.285Z,90.30
2023-02-21T06:55:30.489Z,90.30
2023-02-21T06:57:57.666Z,90.20
2023-02-21T07:00:26.796Z,90.00
2023-02-21T07:02:54.038Z,89.80
2023-02-21T07:05:21.418Z,89.70
2023-02-21T07:07:48.580Z,89.90
2023-02-21T07:10:15.886Z,90.00
2023-02-21T07:12:43.068Z,90.00
2023-02-21T07:15:10.329Z,90.10
2023-02-21T07:17:37.607Z,90.30
2023-02-21T07:20:05.842Z,90.10
2023-02-21T07:22:33.029Z,90.00
2023-02-21T07:25:00.214Z,89.90
2023-02-21T07:27:27.407Z,89.80
2023-02-21T07:29:54.599Z,89.60
2023-02-21T07:32:22.475Z,89.80
2023-02-21T07:34:49.869Z,89.90
2023-02-21T07:37:17.120Z,89.70
2023-02-21T07:39:44.366Z,89.60
2023-02-21T07:42:13.676Z,89.50
2023-02-21T07:44:45.873Z,89.40
2023-02-21T07:47:15.215Z,89.50
2023-02-21T07:49:42.493Z,89.40
2023-02-21T07:52:09.714Z,89.20
2023-02-21T07:54:36.912Z,89.10
2023-02-21T07:57:04.164Z,88.90
2023-02-21T07:59:31.410Z,88.50
2023-02-21T08:01:58.755Z,88.70
2023-02-21T08:04:27.125Z,88.70
2023-02-21T08:06:59.976Z,88.50
2023-02-21T08:09:27.243Z,88.40
2023-02-21T08:11:55.567Z,88.30
2023-02-21T08:14:22.874Z,88.50
2023-02-21T08:16:50.303Z,88.40
2023-02-21T08:19:17.571Z,88.30
2023-02-21T08:21:49.287Z,88.20
2023-02-21T08:24:18.039Z,88.50
2023-02-21T08:26:45.872Z,88.50
2023-02-21T08:29:14.238Z,88.50
2023-02-21T08:31:44.362Z,88.40
2023-02-21T08:34:13.403Z,88.70
2023-02-21T08:36:43.240Z,88.60
2023-02-21T08:39:12.516Z,88.40
2023-02-21T08:41:45.415Z,88.80
2023-02-21T08:44:16.222Z,88.70
2023-02-21T08:46:44.684Z,88.90
2023-02-21T08:49:14.000Z,88.90
2023-02-21T08:51:42.854Z,89.10
2023-02-21T08:54:10.263Z,89.10
2023-02-21T08:56:37.510Z,88.90
2023-02-21T08:59:05.681Z,89.00
2023-02-21T09:01:35.010Z,89.00
2023-02-21T09:04:03.729Z,88.80
2023-02-21T09:06:32.112Z,88.80
2023-02-21T09:08:59.307Z,88.90
2023-02-21T09:11:27.596Z,88.80
2023-02-21T09:13:55.096Z,88.70
2023-02-21T09:16:23.001Z,88.70
2023-02-21T09:18:58.924Z,88.80
2023-02-21T09:21:27.413Z,88.70
2023-02-21T09:23:56.793Z,88.90
2023-02-21T09:26:25.088Z,88.60
2023-02-21T09:28:52.924Z,88.70
2023-02-21T09:31:20.869Z,88.80
2023-02-21T09:33:48.161Z,88.70
2023-02-21T09:36:15.793Z,88.50
2023-02-21T09:38:43.099Z,88.40
2023-02-21T09:41:14.061Z,88.20
2023-02-21T09:43:47.018Z,88.10
2023-02-21T09:46:40.760Z,88.00
2023-02-21T09:49:28.175Z,87.80
2023-02-21T09:51:56.540Z,87.70
2023-02-21T09:54:38.879Z,87.40
2023-02-21T09:57:11.376Z,87.20
2023-02-21T09:59:38.642Z,87.10
2023-02-21T10:02:15.953Z,86.90
2023-02-21T10:05:03.430Z,86.80
2023-02-21T10:07:57.049Z,86.10
2023-02-21T10:10:34.785Z,86.30
2023-02-21T10:13:38.792Z,86.30
2023-02-21T10:16:20.103Z,85.80
2023-02-21T10:18:52.191Z,85.80
2023-02-21T10:21:33.611Z,85.70
2023-02-21T10:24:04.671Z,85.60
2023-02-21T10:26:38.055Z,85.50
2023-02-21T10:29:19.906Z,85.50
2023-02-21T10:31:48.587Z,85.10
2023-02-21T10:34:23.411Z,85.00
2023-02-21T10:36:51.917Z,85.10
2023-02-21T10:39:24.488Z,85.00
2023-02-21T10:41:52.270Z,84.60
2023-02-21T10:44:31.727Z,85.00
2023-02-21T10:47:04.265Z,84.30
2023-02-21T10:49:40.769Z,84.00
2023-02-21T10:52:22.930Z,83.70
2023-02-21T10:55:00.694Z,83.90
2023-02-21T10:57:30.705Z,83.80
2023-02-21T10:59:58.281Z,83.90
2023-02-21T11:02:36.428Z,83.90
2023-02-21T11:05:17.469Z,83.80
2023-02-21T11:08:07.623Z,83.60
2023-02-21T11:10:37.796Z,83.20
2023-02-21T11:13:16.028Z,82.70
2023-02-21T11:15:44.835Z,81.30
2023-02-21T11:18:25.649Z,81.30
2023-02-21T11:20:53.857Z,80.60
2023-02-21T11:23:32.585Z,79.80
2023-02-21T11:26:05.615Z,80.30
2023-02-21T11:28:43.466Z,79.50
2023-02-21T11:31:28.216Z,79.30
2023-02-21T11:33:59.212Z,79.10
2023-02-21T11:36:33.940Z,79.70
2023-02-21T11:39:19.142Z,79.40
2023-02-21T11:41:47.643Z,78.60
2023-02-21T11:44:37.979Z,77.70
2023-02-21T11:47:34.542Z,78.20
2023-02-21T11:50:07.710Z,78.00
2023-02-21T11:52:40.857Z,78.00
2023-02-21T11:55:17.580Z,78.30
2023-02-21T11:58:10.328Z,77.80
2023-02-21T12:01:01.693Z,77.20
2023-02-21T12:03:35.956Z,76.80
2023-02-21T12:06:19.273Z,77.30
2023-02-21T12:09:07.657Z,77.30
2023-02-21T12:12:03.261Z,77.10
2023-02-21T12:14:55.993Z,77.80
2023-02-21T12:17:26.933Z,77.70
2023-02-21T12:20:06.502Z,77.60
2023-02-21T12:23:11.413Z,78.20
2023-02-21T12:26:10.088Z,78.60
2023-02-21T12:28:57.322Z,78.30
2023-02-21T12:32:03.474Z,78.30
2023-02-21T12:35:08.273Z,78.10
2023-02-21T12:38:25.279Z,78.10
2023-02-21T12:41:30.347Z,78.00
2023-02-21T12:44:13.589Z,78.60
2023-02-21T12:46:50.671Z,78.30
2023-02-21T12:49:55.176Z,78.80
2023-02-21T12:52:38.460Z,78.40
2023-02-21T12:55:07.635Z,78.60
2023-02-21T12:57:57.762Z,78.20
2023-02-21T13:00:31.138Z,78.30
2023-02-21T13:03:27.619Z,78.80
2023-02-21T13:06:15.634Z,78.90
2023-02-21T13:09:21.615Z,78.40
2023-02-21T13:11:55.142Z,78.40
2023-02-21T13:14:31.955Z,78.30
2023-02-21T13:16:59.170Z,77.70
2023-02-21T13:19:35.614Z,78.00
2023-02-21T13:22:27.457Z,77.20
2023-02-21T13:25:00.806Z,75.10
2023-02-21T13:27:53.941Z,72.60
2023-02-21T13:31:01.801Z,70.00
2023-02-21T13:33:44.024Z,68.10
2023-02-21T13:36:43.382Z,67.60
2023-02-21T13:39:36.464Z,66.40
2023-02-21T13:42:10.101Z,65.70
2023-02-21T13:45:06.363Z,64.70
2023-02-21T13:47:53.809Z,62.20
2023-02-21T13:50:37.607Z,62.00
2023-02-21T13:53:08.495Z,61.40
2023-02-21T13:55:38.800Z,61.00
2023-02-21T13:58:07.385Z,62.70
2023-02-21T14:00:35.091Z,62.20
2023-02-21T14:03:12.545Z,61.40
2023-02-21T14:05:52.131Z,61.40
2023-02-21T14:08:50.429Z,61.20
2023-02-21T14:11:28.767Z,60.50
2023-02-21T14:14:19.107Z,60.40
2023-02-21T14:16:59.031Z,62.30
2023-02-21T14:19:35.592Z,61.30
2023-02-21T14:22:05.691Z,60.40
2023-02-21T14:24:37.785Z,60.30
2023-02-21T14:27:28.126Z,59.50
2023-02-21T14:30:01.412Z,58.30
2023-02-21T14:32:38.810Z,57.30
2023-02-21T14:35:27.948Z,58.20
2023-02-21T14:38:03.288Z,59.20
2023-02-21T14:40:37.794Z,60.30
2023-02-21T14:43:31.746Z,60.50
2023-02-21T14:46:57.657Z,63.40
2023-02-21T14:49:47.267Z,64.70
2023-02-21T14:52:58.709Z,64.50
2023-02-21T14:55:30.925Z,64.20
2023-02-21T14:58:26.691Z,62.20
2023-02-21T15:01:06.004Z,63.60
2023-02-21T15:03:55.150Z,66.00
2023-02-21T15:06:23.943Z,68.70
2023-02-21T15:08:52.695Z,70.30
2023-02-21T15:11:33.365Z,71.10
2023-02-21T15:14:24.465Z,70.60
2023-02-21T15:16:57.605Z,71.90
2023-02-21T15:19:34.528Z,71.80
2023-02-21T15:22:24.838Z,70.30
2023-02-21T15:25:11.418Z,71.00
2023-02-21T15:28:18.524Z,71.40
2023-02-21T15:30:58.227Z,71.70
2023-02-21T15:33:27.903Z,72.50
2023-02-21T15:35:56.967Z,73.20
2023-02-21T15:38:59.198Z,74.30
2023-02-21T15:41:34.917Z,74.90
2023-02-21T15:44:12.829Z,75.20
2023-02-21T15:47:00.408Z,75.30
2023-02-21T15:49:34.621Z,75.50
2023-02-21T15:52:03.373Z,75.10
2023-02-21T15:54:38.392Z,75.10
2023-02-21T15:57:24.015Z,75.40
2023-02-21T16:00:26.346Z,75.70
2023-02-21T16:03:13.873Z,75.50
2023-02-21T16:05:41.033Z,75.20
2023-02-21T16:08:14.356Z,75.30
2023-02-21T16:10:43.544Z,75.50
2023-02-21T16:13:11.560Z,75.70
2023-02-21T16:15:40.757Z,76.10
2023-02-21T16:18:17.613Z,75.90
2023-02-21T16:21:08.514Z,75.90
2023-02-21T16:23:40.597Z,76.40
2023-02-21T16:26:12.211Z,76.40
2023-02-21T16:29:07.799Z,76.70
2023-02-21T16:31:36.883Z,77.00
2023-02-21T16:34:04.169Z,76.80
2023-02-21T16:36:35.170Z,77.10
2023-02-21T16:39:03.722Z,77.70
2023-02-21T16:41:31.002Z,77.70
2023-02-21T16:44:04.096Z,78.40
2023-02-21T16:46:31.415Z,78.50
2023-02-21T16:48:59.820Z,78.80
2023-02-21T16:51:33.462Z,79.00
2023-02-21T16:54:01.936Z,79.00
2023-02-21T16:56:29.497Z,79.00
2023-02-21T16:58:57.245Z,79.20
2023-02-21T17:01:29.475Z,79.50
2023-02-21T17:03:56.813Z,79.50
2023-02-21T17:06:25.958Z,79.70
2023-02-21T17:08:53.248Z,79.50
2023-02-21T17:11:20.482Z,79.50
2023-02-21T17:13:47.764Z,79.20
2023-02-21T17:16:15.020Z,79.10
2023-02-21T17:18:46.326Z,79.50
2023-02-21T17:21:13.700Z,79.60
2023-02-21T17:23:41.772Z,79.90
2023-02-21T17:26:09.155Z,80.10
2023-02-21T17:28:39.049Z,80.50
2023-02-21T17:31:06.353Z,80.80
2023-02-21T17:33:35.536Z,80.90
2023-02-21T17:36:02.788Z,81.00
2023-02-21T17:38:30.248Z,81.00
2023-02-21T17:40:57.653Z,81.10
2023-02-21T17:43:25.031Z,81.10
2023-02-21T17:45:52.339Z,81.30
2023-02-21T17:48:19.583Z,81.10
2023-02-21T17:50:46.801Z,81.10
2023-02-21T17:53:15.060Z,80.80
2023-02-21T17:55:42.259Z,80.80
2023-02-21T17:58:10.219Z,81.00
2023-02-21T18:00:39.119Z,81.00
2023-02-21T18:03:09.381Z,81.20
2023-02-21T18:05:37.772Z,81.20
2023-02-21T18:08:05.391Z,81.20
2023-02-21T18:10:32.638Z,81.00
2023-02-21T18:13:00.130Z,81.00
2023-02-21T18:15:28.824Z,80.80
2023-02-21T18:18:03.801Z,81.00
2023-02-21T18:20:31.846Z,80.60
2023-02-21T18:22:59.267Z,80.50
2023-02-21T18:25:26.830Z,80.50
2023-02-21T18:27:54.037Z,80.60
2023-02-21T18:30:22.355Z,80.60
2023-02-21T18:32:49.732Z,80.30
2023-02-21T18:35:17.860Z,80.40
2023-02-21T18:37:48.718Z,80.60
2023-02-21T18:40:18.414Z,80.90
2023-02-21T18:42:47.544Z,81.40
2023-02-21T18:45:14.693Z,81.70
2023-02-21T18:47:42.271Z,81.80
2023-02-21T18:50:09.781Z,81.80
2023-02-21T18:52:36.985Z,81.90
2023-02-21T18:55:04.704Z,81.90
2023-02-21T18:57:32.089Z,81.70
2023-02-21T18:59:59.315Z,81.90
2023-02-21T19:02:28.522Z,82.00
2023-02-21T19:04:55.674Z,82.00
2023-02-21T19:07:22.803Z,82.00
2023-02-21T19:09:52.772Z,81.80
2023-02-21T19:12:20.058Z,82.10
2023-02-21T19:14:47.344Z,82.30
2023-02-21T19:17:15.753Z,82.30
2023-02-21T19:19:42.972Z,82.30
2023-02-21T19:22:10.225Z,82.20
2023-02-21T19:24:37.494Z,82.40
2023-02-21T19:27:04.701Z,82.80
2023-02-21T19:29:31.949Z,82.80
2023-02-21T19:31:59.314Z,82.90
2023-02-21T19:34:26.737Z,83.00
2023-02-21T19:36:53.995Z,82.90
2023-02-21T19:39:21.207Z,83.10
2023-02-21T19:41:49.524Z,83.10
2023-02-21T19:44:16.758Z,83.00
2023-02-21T19:46:44.391Z,83.20
2023-02-21T19:49:20.435Z,83.10
2023-02-21T19:51:49.807Z,83.20
2023-02-21T19:54:19.554Z,83.30
2023-02-21T19:56:47.293Z,83.50
2023-02-21T19:59:14.638Z,83.40
2023-02-21T20:01:42.062Z,83.50
2023-02-21T20:04:09.775Z,83.50
2023-02-21T20:06:37.764Z,83.70
2023-02-21T20:09:07.816Z,84.10
2023-02-21T20:11:35.938Z,84.00
2023-02-21T20:14:04.314Z,84.10
2023-02-21T20:16:42.929Z,83.80
2023-02-21T20:19:11.562Z,83.60
2023-02-21T20:21:39.313Z,83.40
2023-02-21T20:24:07.243Z,83.40
2023-02-21T20:26:34.668Z,83.40
2023-02-21T20:29:02.254Z,83.40
2023-02-21T20:31:32.721Z,83.70
2023-02-21T20:34:03.071Z,83.70
2023-02-21T20:36:33.087Z,83.70
2023-02-21T20:39:00.727Z,83.90
2023-02-21T20:41:32.880Z,83.90
2023-02-21T20:44:00.848Z,84.20
2023-02-21T20:46:28.835Z,84.10
2023-02-21T20:48:58.711Z,84.20
2023-02-21T20:51:35.032Z,84.00
2023-02-21T20:54:04.638Z,83.80
2023-02-21T20:56:33.894Z,83.70
2023-02-21T20:59:02.772Z,83.90
2023-02-21T21:01:30.021Z,83.80
2023-02-21T21:03:57.805Z,84.00
2023-02-21T21:06:26.214Z,83.90
2023-02-21T21:08:53.597Z,83.80
2023-02-21T21:11:21.893Z,84.10
2023-02-21T21:13:50.013Z,84.20
2023-02-21T21:16:17.330Z,84.40
2023-02-21T21:18:44.996Z,84.40
2023-02-21T21:21:12.294Z,84.40
2023-02-21T21:23:39.495Z,84.20
2023-02-21T21:26:09.453Z,84.30
2023-02-21T21:28:36.628Z,84.40
2023-02-21T21:31:04.440Z,84.30
2023-02-21T21:33:31.817Z,84.50
2023-02-21T21:35:59.060Z,84.60
2023-02-21T21:38:28.301Z,84.70
2023-02-21T21:40:56.868Z,84.60
2023-02-21T21:43:25.247Z,84.70
2023-02-21T21:45:52.740Z,84.90
2023-02-21T21:48:20.040Z,84.50
2023-02-21T21:50:47.278Z,84.70
2023-02-21T21:53:14.538Z,84.60
2023-02-21T21:55:41.811Z,84.90
2023-02-21T21:58:13.789Z,85.00
2023-02-21T22:00:46.105Z,85.20
2023-02-21T22:03:18.212Z,85.30
2023-02-21T22:05:46.195Z,85.40
2023-02-21T22:08:16.474Z,85.70
2023-02-21T22:10:45.339Z,85.50
2023-02-21T22:13:17.272Z,85.40
2023-02-21T22:15:44.567Z,85.60
2023-02-21T22:18:16.313Z,86.00
2023-02-21T22:20:48.364Z,86.10
2023-02-21T22:23:21.511Z,86.30
2023-02-21T22:25:49.622Z,86.60
2023-02-21T22:28:19.249Z,86.50
2023-02-21T22:30:46.851Z,86.30
2023-02-21T22:33:20.373Z,86.30
2023-02-21T22:35:48.805Z,86.10
2023-02-21T22:38:17.385Z,86.00
2023-02-21T22:40:46.405Z,86.10
2023-02-21T22:43:14.737Z,86.10
2023-02-21T22:45:49.600Z,86.00
2023-02-21T22:48:20.164Z,86.10
2023-02-21T22:50:50.145Z,86.00
2023-02-21T22:53:19.677Z,86.00
2023-02-21T22:55:51.967Z,86.10
2023-02-21T22:58:22.229Z,86.50
2023-02-21T23:00:52.213Z,86.50
2023-02-21T23:03:22.265Z,86.50
2023-02-21T23:05:51.602Z,86.50
2023-02-21T23:08:21.643Z,86.60
2023-02-21T23:10:49.528Z,86.40
2023-02-21T23:13:23.964Z,86.20
2023-02-21T23:15:55.429Z,86.60
2023-02-21T23:18:24.546Z,86.40
2023-02-21T23:20:54.513Z,86.40
2023-02-21T23:23:25.906Z,86.20
2023-02-21T23:25:56.405Z,86.10
2023-02-21T23:28:23.787Z,85.70
2023-02-21T23:30:51.023Z,85.90
2023-02-21T23:33:23.040Z,86.00
2023-02-21T23:35:57.638Z,86.10
2023-02-21T23:38:28.089Z,86.30
2023-02-21T23:40:57.638Z,86.80
2023-02-21T23:43:29.715Z,87.10
2023-02-21T23:46:00.734Z,87.70
2023-02-21T23:48:29.469Z,87.90
2023-02-21T23:50:58.055Z,88.00
2023-02-21T23:53:27.682Z,88.30
2023-02-21T23:55:57.486Z,88.40
2023-02-21T23:58:28.457Z,88.50
